createdAt,value
2023-10-15T00:02:25.452Z,63.23
2023-10-15T00:05:08.913Z,63.40
2023-10-15T00:07:52.911Z,63.73
2023-10-15T00:10:36.199Z,63.43
2023-10-15T00:13:19.360Z,63.44
2023-10-15T00:16:03.703Z,63.44
2023-10-15T00:18:46.645Z,63.34
2023-10-15T00:21:29.779Z,63.32
2023-10-15T00:24:12.687Z,63.42
2023-10-15T00:26:56.092Z,63.46
2023-10-15T00:29:38.947Z,63.46
2023-10-15T00:32:24.648Z,63.44
2023-10-15T00:35:08.791Z,63.32
2023-10-15T00:37:56.214Z,63.51
2023-10-15T00:40:39.640Z,63.30
2023-10-15T00:43:23.146Z,63.29
2023-10-15T00:46:14.466Z,63.36
2023-10-15T00:49:03.491Z,63.23
2023-10-15T00:51:47.866Z,63.71
2023-10-15T00:54:34.600Z,63.53
2023-10-15T00:57:27.951Z,63.50
2023-10-15T01:00:34.271Z,63.26
2023-10-15T01:03:18.681Z,63.19
2023-10-15T01:06:04.419Z,63.18
2023-10-15T01:08:48.340Z,63.24
2023-10-15T01:11:31.588Z,63.18
2023-10-15T01:14:15.499Z,63.19
2023-10-15T01:16:58.676Z,63.32
2023-10-15T01:19:41.744Z,63.32
2023-10-15T01:22:26.350Z,63.25
2023-10-15T01:25:20.902Z,62.96
2023-10-15T01:28:07.584Z,62.94
2023-10-15T01:30:51.618Z,62.99
2023-10-15T01:33:47.132Z,63.16
2023-10-15T01:36:30.074Z,63.27
2023-10-15T01:39:14.069Z,63.35
2023-10-15T01:42:04.726Z,63.19
2023-10-15T01:44:50.105Z,63.21
2023-10-15T01:47:36.806Z,63.08
2023-10-15T01:50:25.041Z,63.01
2023-10-15T01:53:08.414Z,62.94
2023-10-15T01:56:00.579Z,62.89
2023-10-15T01:58:45.843Z,63.20
2023-10-15T02:01:35.886Z,63.07
2023-10-15T02:04:22.888Z,63.08
2023-10-15T02:07:05.980Z,63.11
2023-10-15T02:09:49.107Z,63.04
2023-10-15T02:12:31.973Z,63.04
2023-10-15T02:15:23.831Z,62.94
2023-10-15T02:18:08.896Z,63.16
2023-10-15T02:21:02.416Z,63.01
2023-10-15T02:23:52.131Z,63.07
2023-10-15T02:26:36.343Z,62.99
2023-10-15T02:29:36.175Z,62.56
2023-10-15T02:32:32.439Z,62.93
2023-10-15T02:35:16.574Z,62.91
2023-10-15T02:38:00.430Z,62.81
2023-10-15T02:41:05.069Z,62.87
2023-10-15T02:43:49.819Z,62.72
2023-10-15T02:46:38.096Z,62.96
2023-10-15T02:49:26.948Z,62.81
2023-10-15T02:52:19.288Z,62.63
2023-10-15T02:55:06.971Z,62.75
2023-10-15T02:57:52.959Z,62.77
2023-10-15T03:00:37.087Z,62.78
2023-10-15T03:03:24.845Z,62.96
2023-10-15T03:06:11.009Z,63.13
2023-10-15T03:08:54.471Z,62.99
2023-10-15T03:11:39.734Z,62.96
2023-10-15T03:14:26.439Z,63.28
2023-10-15T03:17:14.546Z,63.04
2023-10-15T03:20:06.422Z,63.26
2023-10-15T03:22:53.433Z,63.16
2023-10-15T03:25:36.419Z,63.19
2023-10-15T03:28:19.401Z,63.27
2023-10-15T03:31:02.964Z,63.23
2023-10-15T03:33:59.834Z,63.10
2023-10-15T03:36:52.797Z,63.24
2023-10-15T03:39:51.238Z,63.28
2023-10-15T03:42:40.339Z,63.26
2023-10-15T03:45:27.646Z,63.42
2023-10-15T03:48:16.006Z,63.34
2023-10-15T03:50:59.585Z,63.30
2023-10-15T03:53:43.250Z,63.04
2023-10-15T03:56:29.250Z,63.08
2023-10-15T03:59:12.814Z,62.97
2023-10-15T04:01:57.976Z,62.87
2023-10-15T04:04:40.996Z,62.91
2023-10-15T04:07:26.184Z,63.16
2023-10-15T04:10:13.934Z,63.11
2023-10-15T04:13:00.240Z,63.12
2023-10-15T04:15:43.849Z,63.08
2023-10-15T04:18:28.120Z,63.05
2023-10-15T04:21:11.076Z,63.00
2023-10-15T04:23:57.323Z,63.08
2023-10-15T04:26:43.735Z,63.07
2023-10-15T04:29:32.006Z,62.97
2023-10-15T04:32:19.295Z,63.22
2023-10-15T04:35:03.609Z,63.20
2023-10-15T04:37:50.051Z,63.09
2023-10-15T04:40:40.963Z,63.37
2023-10-15T04:43:26.383Z,63.28
2023-10-15T04:46:10.691Z,63.31
2023-10-15T04:48:56.074Z,63.41
2023-10-15T04:51:43.852Z,63.57
2023-10-15T04:54:27.035Z,63.58
2023-10-15T04:57:10.816Z,63.38
2023-10-15T04:59:53.773Z,63.38
2023-10-15T05:02:38.257Z,63.37
2023-10-15T05:05:21.366Z,63.40
2023-10-15T05:08:04.574Z,63.54
2023-10-15T05:10:51.919Z,63.45
2023-10-15T05:13:35.181Z,63.38
2023-10-15T05:16:18.269Z,63.47
2023-10-15T05:19:03.068Z,63.57
2023-10-15T05:21:47.863Z,63.74
2023-10-15T05:24:31.615Z,63.88
2023-10-15T05:27:14.526Z,63.44
2023-10-15T05:29:59.155Z,63.58
2023-10-15T05:32:41.829Z,63.85
2023-10-15T05:35:28.486Z,63.42
2023-10-15T05:38:11.399Z,63.65
2023-10-15T05:41:01.805Z,63.67
2023-10-15T05:43:46.008Z,63.61
2023-10-15T05:46:32.127Z,63.75
2023-10-15T05:49:15.384Z,63.94
2023-10-15T05:52:00.076Z,63.78
2023-10-15T05:54:42.794Z,63.99
2023-10-15T05:57:25.906Z,63.74
2023-10-15T06:00:20.064Z,63.82
2023-10-15T06:03:03.458Z,63.85
2023-10-15T06:05:46.373Z,63.67
2023-10-15T06:08:31.251Z,63.80
2023-10-15T06:11:14.593Z,63.71
2023-10-15T06:13:57.826Z,63.65
2023-10-15T06:16:40.832Z,63.53
2023-10-15T06:19:23.813Z,63.38
2023-10-15T06:22:06.961Z,63.55
2023-10-15T06:24:51.307Z,63.45
2023-10-15T06:27:34.134Z,63.52
2023-10-15T06:30:23.085Z,63.29
2023-10-15T06:33:07.458Z,63.24
2023-10-15T06:35:52.528Z,63.18
2023-10-15T06:38:35.438Z,63.16
2023-10-15T06:41:19.698Z,63.20
2023-10-15T06:44:02.614Z,63.47
2023-10-15T06:46:45.606Z,63.41
2023-10-15T06:49:28.550Z,63.61
2023-10-15T06:52:11.467Z,63.38
2023-10-15T06:54:55.351Z,63.41
2023-10-15T06:57:40.361Z,63.34
2023-10-15T07:00:26.749Z,64.07
2023-10-15T07:03:09.989Z,64.55
2023-10-15T07:05:53.098Z,64.50
2023-10-15T07:08:36.170Z,64.56
2023-10-15T07:11:19.010Z,65.04
2023-10-15T07:14:04.308Z,64.07
2023-10-15T07:16:47.370Z,63.68
2023-10-15T07:19:30.326Z,63.76
2023-10-15T07:22:13.211Z,63.76
2023-10-15T07:24:56.502Z,63.93
2023-10-15T07:27:43.289Z,63.77
2023-10-15T07:30:29.242Z,64.04
2023-10-15T07:33:12.281Z,63.76
2023-10-15T07:35:55.236Z,63.73
2023-10-15T07:38:38.918Z,63.60
2023-10-15T07:41:21.807Z,63.52
2023-10-15T07:44:04.973Z,63.65
2023-10-15T07:46:53.949Z,63.71
2023-10-15T07:49:37.293Z,63.57
2023-10-15T07:52:20.419Z,63.83
2023-10-15T07:55:03.701Z,63.69
2023-10-15T07:57:47.792Z,63.80
2023-10-15T08:00:32.290Z,63.65
2023-10-15T08:03:17.589Z,63.80
2023-10-15T08:06:03.530Z,63.88
2023-10-15T08:08:47.090Z,63.69
2023-10-15T08:11:30.914Z,63.78
2023-10-15T08:14:13.897Z,63.84
2023-10-15T08:16:56.854Z,63.75
2023-10-15T08:19:41.147Z,63.48
2023-10-15T08:22:24.181Z,63.90
2023-10-15T08:25:11.625Z,63.81
2023-10-15T08:27:54.635Z,63.52
2023-10-15T08:30:37.791Z,63.28
2023-10-15T08:33:20.788Z,63.59
2023-10-15T08:36:05.246Z,63.34
2023-10-15T08:38:50.741Z,63.39
2023-10-15T08:41:35.115Z,63.37
2023-10-15T08:44:20.557Z,63.29
2023-10-15T08:47:05.922Z,63.57
2023-10-15T08:49:53.838Z,63.50
2023-10-15T08:52:40.440Z,63.60
2023-10-15T08:55:24.600Z,63.45
2023-10-15T08:58:10.728Z,63.66
2023-10-15T09:00:57.919Z,63.72
2023-10-15T09:03:41.135Z,63.97
2023-10-15T09:06:24.265Z,63.88
2023-10-15T09:09:08.510Z,64.00
2023-10-15T09:11:54.479Z,63.80
2023-10-15T09:14:41.967Z,63.80
2023-10-15T09:17:27.715Z,63.74
2023-10-15T09:20:12.066Z,64.05
2023-10-15T09:22:59.667Z,63.91
2023-10-15T09:25:45.998Z,64.23
2023-10-15T09:28:30.249Z,64.28
2023-10-15T09:31:13.689Z,64.18
2023-10-15T09:33:56.529Z,64.30
2023-10-15T09:36:39.813Z,64.49
2023-10-15T09:39:23.511Z,64.20
2023-10-15T09:42:07.836Z,64.15
2023-10-15T09:44:52.165Z,64.12
2023-10-15T09:47:36.700Z,64.49
2023-10-15T09:50:21.185Z,64.04
2023-10-15T09:53:10.750Z,63.64
2023-10-15T09:55:54.631Z,63.61
2023-10-15T09:58:39.696Z,63.32
2023-10-15T10:01:28.419Z,63.51
2023-10-15T10:04:53.834Z,63.66
2023-10-15T10:07:49.418Z,63.58
2023-10-15T10:10:58.217Z,63.47
2023-10-15T10:14:24.884Z,63.59
2023-10-15T10:17:11.137Z,63.27
2023-10-15T10:19:55.716Z,63.16
2023-10-15T10:22:39.991Z,63.36
2023-10-15T10:25:36.761Z,62.92
2023-10-15T10:28:22.032Z,63.19
2023-10-15T10:31:08.404Z,63.39
2023-10-15T10:33:55.553Z,63.49
2023-10-15T10:36:40.477Z,63.57
2023-10-15T10:39:23.745Z,63.42
2023-10-15T10:42:06.626Z,63.47
2023-10-15T10:44:49.583Z,63.59
2023-10-15T10:47:35.051Z,63.58
2023-10-15T10:50:20.832Z,63.55
2023-10-15T10:53:15.181Z,63.38
2023-10-15T10:56:05.744Z,63.62
2023-10-15T10:58:49.109Z,63.41
2023-10-15T11:01:34.715Z,63.26
2023-10-15T11:04:18.362Z,63.06
2023-10-15T11:07:05.292Z,63.00
2023-10-15T11:09:49.134Z,62.98
2023-10-15T11:12:32.060Z,63.00
2023-10-15T11:15:15.803Z,63.41
2023-10-15T11:17:59.179Z,63.14
2023-10-15T11:20:42.343Z,63.36
2023-10-15T11:23:27.975Z,62.65
2023-10-15T11:26:11.170Z,63.06
2023-10-15T11:28:54.115Z,63.00
2023-10-15T11:31:37.484Z,62.78
2023-10-15T11:34:22.755Z,62.79
2023-10-15T11:37:07.069Z,62.38
2023-10-15T11:39:52.349Z,61.99
2023-10-15T11:42:35.195Z,61.99
2023-10-15T11:45:26.503Z,61.69
2023-10-15T11:48:12.976Z,61.55
2023-10-15T11:50:57.026Z,61.31
2023-10-15T11:53:42.291Z,61.79
2023-10-15T11:56:27.957Z,61.88
2023-10-15T11:59:11.150Z,61.82
2023-10-15T12:01:54.284Z,61.92
2023-10-15T12:04:37.185Z,62.23
2023-10-15T12:10:15.353Z,61.73
2023-10-15T12:13:00.278Z,62.08
2023-10-15T12:15:43.939Z,61.59
2023-10-15T12:18:26.846Z,61.10
2023-10-15T12:21:09.717Z,60.57
2023-10-15T12:23:52.597Z,60.77
2023-10-15T12:26:35.481Z,61.09
2023-10-15T12:29:31.252Z,61.24
2023-10-15T12:32:14.385Z,61.02
2023-10-15T12:34:57.319Z,60.37
2023-10-15T12:37:40.367Z,59.98
2023-10-15T12:40:25.269Z,59.34
2023-10-15T12:43:10.540Z,58.11
2023-10-15T12:45:55.211Z,58.07
2023-10-15T12:48:37.877Z,55.70
2023-10-15T12:51:22.271Z,56.92
2023-10-15T12:54:05.751Z,56.58
2023-10-15T12:56:48.623Z,56.90
2023-10-15T12:59:32.670Z,57.34
2023-10-15T13:02:18.585Z,54.92
2023-10-15T13:05:03.524Z,56.22
2023-10-15T13:07:48.659Z,56.10
2023-10-15T13:10:33.553Z,56.34
2023-10-15T13:13:16.605Z,56.50
2023-10-15T13:16:00.060Z,56.75
2023-10-15T13:18:44.253Z,56.48
2023-10-15T13:21:27.157Z,56.63
2023-10-15T13:24:11.689Z,56.63
2023-10-15T13:26:54.659Z,56.74
2023-10-15T13:29:38.146Z,57.25
2023-10-15T13:32:21.207Z,57.08
2023-10-15T13:35:06.632Z,57.16
2023-10-15T13:37:49.713Z,56.95
2023-10-15T13:40:33.240Z,57.15
2023-10-15T13:43:16.141Z,57.09
2023-10-15T13:45:59.218Z,56.56
2023-10-15T13:48:42.584Z,56.81
2023-10-15T13:51:27.943Z,56.85
2023-10-15T13:54:10.843Z,57.01
2023-10-15T13:56:54.365Z,57.32
2023-10-15T13:59:38.445Z,57.67
2023-10-15T14:02:21.669Z,57.16
2023-10-15T14:05:06.570Z,56.94
2023-10-15T14:07:53.343Z,57.05
2023-10-15T14:10:36.577Z,56.98
2023-10-15T14:13:20.836Z,57.09
2023-10-15T14:16:05.779Z,56.51
2023-10-15T14:18:49.938Z,56.27
2023-10-15T14:21:32.921Z,56.45
2023-10-15T14:24:17.124Z,55.75
2023-10-15T14:27:00.030Z,55.95
2023-10-15T14:29:42.925Z,56.46
2023-10-15T14:32:25.915Z,56.03
2023-10-15T14:35:11.792Z,56.26
2023-10-15T14:37:56.105Z,56.22
2023-10-15T14:40:40.681Z,56.44
2023-10-15T14:43:23.800Z,56.73
2023-10-15T14:46:07.315Z,56.93
2023-10-15T14:48:50.157Z,56.89
2023-10-15T14:51:33.060Z,56.60
2023-10-15T14:54:16.241Z,56.97
2023-10-15T14:57:01.201Z,57.15
2023-10-15T14:59:44.070Z,57.07
2023-10-15T15:02:27.159Z,57.32
2023-10-15T15:05:10.266Z,57.46
2023-10-15T15:07:53.664Z,57.58
2023-10-15T15:10:37.066Z,57.42
2023-10-15T15:13:21.288Z,57.56
2023-10-15T15:16:04.489Z,57.21
2023-10-15T15:18:47.369Z,57.47
2023-10-15T15:21:30.207Z,57.44
2023-10-15T15:24:16.873Z,57.39
2023-10-15T15:27:00.118Z,57.28
2023-10-15T15:29:44.367Z,57.24
2023-10-15T15:32:28.723Z,57.11
2023-10-15T15:35:11.910Z,57.13
2023-10-15T15:37:54.845Z,56.96
2023-10-15T15:40:38.540Z,56.90
2023-10-15T15:43:25.192Z,56.89
2023-10-15T15:46:13.326Z,56.90
2023-10-15T15:48:57.137Z,56.86
2023-10-15T15:51:40.618Z,56.90
2023-10-15T15:54:25.676Z,57.13
2023-10-15T15:57:09.342Z,56.92
2023-10-15T15:59:53.420Z,57.27
2023-10-15T16:02:37.885Z,57.25
2023-10-15T16:05:21.427Z,57.66
2023-10-15T16:08:05.274Z,57.49
2023-10-15T16:10:48.182Z,57.61
2023-10-15T16:13:31.081Z,57.97
2023-10-15T16:16:13.938Z,58.52
2023-10-15T16:18:58.158Z,58.27
2023-10-15T16:21:41.039Z,58.58
2023-10-15T16:24:24.105Z,58.58
2023-10-15T16:27:11.162Z,58.96
2023-10-15T16:29:54.059Z,59.10
2023-10-15T16:32:37.278Z,59.17
2023-10-15T16:35:21.896Z,58.96
2023-10-15T16:38:05.181Z,59.01
2023-10-15T16:40:48.132Z,59.29
2023-10-15T16:43:31.493Z,59.45
2023-10-15T16:46:14.486Z,59.50
2023-10-15T16:48:57.448Z,59.71
2023-10-15T16:51:41.642Z,59.58
2023-10-15T16:54:24.725Z,59.96
2023-10-15T16:57:07.768Z,59.70
2023-10-15T16:59:57.641Z,60.04
2023-10-15T17:02:40.609Z,60.22
2023-10-15T17:05:24.102Z,59.89
2023-10-15T17:08:08.787Z,59.96
2023-10-15T17:10:51.752Z,60.65
2023-10-15T17:13:35.153Z,59.87
2023-10-15T17:16:18.050Z,60.07
2023-10-15T17:19:00.949Z,60.19
2023-10-15T17:21:43.988Z,60.23
2023-10-15T17:24:28.941Z,60.24
2023-10-15T17:27:11.946Z,60.22
2023-10-15T17:30:13.858Z,60.18
2023-10-15T17:32:57.800Z,60.39
2023-10-15T17:35:40.758Z,60.43
2023-10-15T17:38:23.963Z,60.33
2023-10-15T17:41:08.993Z,60.46
2023-10-15T17:43:51.890Z,60.55
2023-10-15T17:46:35.162Z,60.67
2023-10-15T17:49:18.128Z,60.71
2023-10-15T17:52:00.987Z,60.67
2023-10-15T17:54:44.700Z,60.75
2023-10-15T17:57:29.135Z,60.79
2023-10-15T18:00:15.812Z,60.66
2023-10-15T18:02:58.912Z,60.76
2023-10-15T18:05:41.851Z,60.65
2023-10-15T18:08:26.798Z,60.87
2023-10-15T18:11:10.472Z,61.22
2023-10-15T18:13:54.663Z,60.86
2023-10-15T18:16:38.125Z,60.51
2023-10-15T18:19:21.060Z,61.00
2023-10-15T18:22:04.008Z,60.86
2023-10-15T18:24:46.951Z,60.83
2023-10-15T18:27:30.199Z,61.22
2023-10-15T18:30:14.725Z,61.20
2023-10-15T18:32:57.679Z,61.59
2023-10-15T18:35:41.113Z,61.55
2023-10-15T18:38:25.628Z,61.56
2023-10-15T18:41:08.469Z,62.47
2023-10-15T18:43:51.414Z,61.87
2023-10-15T18:46:35.636Z,62.14
2023-10-15T18:49:19.480Z,62.03
2023-10-15T18:52:03.779Z,61.96
2023-10-15T18:54:46.893Z,61.97
2023-10-15T18:57:29.823Z,62.02
2023-10-15T19:00:15.162Z,61.98
2023-10-15T19:02:59.585Z,62.16
2023-10-15T19:05:42.529Z,62.12
2023-10-15T19:08:25.852Z,61.90
2023-10-15T19:11:14.441Z,62.03
2023-10-15T19:13:57.959Z,61.84
2023-10-15T19:16:40.869Z,61.89
2023-10-15T19:19:27.483Z,62.11
2023-10-15T19:22:11.513Z,62.01
2023-10-15T19:24:54.816Z,62.17
2023-10-15T19:27:38.267Z,61.96
2023-10-15T19:30:21.346Z,62.32
2023-10-15T19:33:04.599Z,62.36
2023-10-15T19:35:48.917Z,62.38
2023-10-15T19:38:32.242Z,62.60
2023-10-15T19:41:16.984Z,62.33
2023-10-15T19:44:00.525Z,62.43
2023-10-15T19:46:43.536Z,62.40
2023-10-15T19:49:27.505Z,62.47
2023-10-15T19:52:11.678Z,62.37
2023-10-15T19:54:55.501Z,62.66
2023-10-15T19:57:38.444Z,62.64
2023-10-15T20:00:21.575Z,62.47
2023-10-15T20:03:07.106Z,62.35
2023-10-15T20:05:50.600Z,62.76
2023-10-15T20:08:35.517Z,62.67
2023-10-15T20:11:18.410Z,62.98
2023-10-15T20:14:01.482Z,63.05
2023-10-15T20:16:44.318Z,63.15
2023-10-15T20:19:28.487Z,63.08
2023-10-15T20:22:12.176Z,63.01
2023-10-15T20:24:56.471Z,62.94
2023-10-15T20:27:41.311Z,63.10
2023-10-15T20:30:24.504Z,62.92
2023-10-15T20:33:07.474Z,62.89
2023-10-15T20:35:51.494Z,63.13
2023-10-15T20:38:35.419Z,63.10
2023-10-15T20:41:19.590Z,63.15
2023-10-15T20:44:02.477Z,63.28
2023-10-15T20:46:46.084Z,63.66
2023-10-15T20:49:29.044Z,63.41
2023-10-15T20:52:11.924Z,63.21
2023-10-15T20:54:54.748Z,63.55
2023-10-15T20:57:41.557Z,64.07
2023-10-15T21:00:24.601Z,64.45
2023-10-15T21:03:07.732Z,64.42
2023-10-15T21:05:51.116Z,64.71
2023-10-15T21:08:34.088Z,64.62
2023-10-15T21:11:17.084Z,64.66
2023-10-15T21:14:01.299Z,64.72
2023-10-15T21:16:44.226Z,64.60
2023-10-15T21:19:27.161Z,64.58
2023-10-15T21:22:12.231Z,64.68
2023-10-15T21:24:55.354Z,64.67
2023-10-15T21:27:39.284Z,64.68
2023-10-15T21:30:23.673Z,64.44
2023-10-15T21:33:06.967Z,64.39
2023-10-15T21:35:50.045Z,64.24
2023-10-15T21:38:33.281Z,64.18
2023-10-15T21:41:19.063Z,64.57
2023-10-15T21:44:02.474Z,64.32
2023-10-15T21:46:46.922Z,64.67
2023-10-15T21:49:29.871Z,64.63
2023-10-15T21:52:12.845Z,64.43
2023-10-15T21:54:55.881Z,64.42
2023-10-15T21:57:41.003Z,64.57
2023-10-15T22:00:30.836Z,64.46
2023-10-15T22:03:15.640Z,64.39
2023-10-15T22:06:00.795Z,64.44
2023-10-15T22:08:44.946Z,64.57
2023-10-15T22:11:28.561Z,64.43
2023-10-15T22:14:11.569Z,64.52
2023-10-15T22:16:55.966Z,64.49
2023-10-15T22:19:40.224Z,64.62
2023-10-15T22:22:25.345Z,64.25
2023-10-15T22:25:10.105Z,64.27
2023-10-15T22:27:53.012Z,64.44
2023-10-15T22:30:40.120Z,64.32
2023-10-15T22:33:23.555Z,64.58
2023-10-15T22:36:08.408Z,64.65
2023-10-15T22:38:51.649Z,64.54
2023-10-15T22:41:34.519Z,64.46
2023-10-15T22:44:18.129Z,64.77
2023-10-15T22:47:00.970Z,64.58
2023-10-15T22:49:44.190Z,64.58
2023-10-15T22:52:28.402Z,64.62
2023-10-15T22:55:11.405Z,64.61
2023-10-15T22:57:54.328Z,64.52
2023-10-15T23:00:37.254Z,64.47
2023-10-15T23:03:20.418Z,64.74
2023-10-15T23:06:05.742Z,64.95
2023-10-15T23:08:49.974Z,64.82
2023-10-15T23:11:32.860Z,64.72
2023-10-15T23:14:15.768Z,64.64
2023-10-15T23:17:02.098Z,64.69
2023-10-15T23:19:45.754Z,64.61
2023-10-15T23:22:28.636Z,64.55
2023-10-15T23:25:13.002Z,64.26
2023-10-15T23:27:58.362Z,64.31
2023-10-15T23:30:45.324Z,64.68
2023-10-15T23:33:31.436Z,64.82
2023-10-15T23:36:14.622Z,64.57
2023-10-15T23:38:57.517Z,64.68
2023-10-15T23:41:44.150Z,64.72
2023-10-15T23:44:27.182Z,64.88
2023-10-15T23:47:16.273Z,65.31
2023-10-15T23:49:59.749Z,65.28
2023-10-15T23:52:44.918Z,65.33
2023-10-15T23:55:28.018Z,65.22
2023-10-15T23:58:12.258Z,65.41
